CheckWX is a tool to help pilots better visualize weather data.  It is not intended as a substitute for an official pre-flight weather briefing.

14:15:09 UTC

GOGG METAR
Ziguinchor Airport
Ziguinchor, Senegal
Current

1 hour ago

GOGG 201300Z 12004KT 9999 BKN016TCU 32/24 Q1013
Observed
Jul-20 @ 13:00 UTC
Wind
  • 120° at 4 KTS
Visibility
10,000+ meters
Flight Rules
MVFR
Cloud Levels
  • Broken at 1,600' AGL
Temperature
32°C / 90°F
Dewpoint
24°C / 75°F
Heat Index
38°C / 101°F
Humidity
63%
Altimeter
29.91" Hg
Pressure
1012.92 hPa
Previous

2 hours ago

GOGG 201200Z VRB02KT 9999 BKN015TCU 31/22 Q1013
Observed
Jul-20 @ 12:00 UTC
Wind
  • Variable at 2 KTS
Visibility
10,000+ meters
Flight Rules
MVFR
Cloud Levels
  • Broken at 1,500' AGL
Temperature
31°C / 88°F
Dewpoint
22°C / 72°F
Heat Index
35°C / 95°F
Humidity
59%
Altimeter
29.91" Hg
Pressure
1012.92 hPa
Previous

3 hours ago

GOGG 201100Z 36004KT 9999 SCT015TCU 29/22 Q1014
Observed
Jul-20 @ 11:00 UTC
Wind
  • 360° at 4 KTS
Visibility
10,000+ meters
Flight Rules
VFR
Cloud Levels
  • Scattered at 1,500' AGL
Temperature
29°C / 84°F
Dewpoint
22°C / 72°F
Heat Index
32°C / 89°F
Humidity
66%
Altimeter
29.94" Hg
Pressure
1013.92 hPa